createdAt,value
2023-09-17T00:01:51.028Z,16.75
2023-09-17T00:04:25.529Z,16.73
2023-09-17T00:06:58.545Z,16.70
2023-09-17T00:09:31.521Z,16.69
2023-09-17T00:12:04.866Z,16.65
2023-09-17T00:14:37.990Z,16.63
2023-09-17T00:17:11.093Z,16.60
2023-09-17T00:19:45.622Z,16.58
2023-09-17T00:22:18.798Z,16.58
2023-09-17T00:24:51.883Z,16.57
2023-09-17T00:27:24.908Z,16.56
2023-09-17T00:29:58.147Z,16.55
2023-09-17T00:32:31.110Z,16.53
2023-09-17T00:35:06.313Z,16.53
2023-09-17T00:37:39.363Z,16.51
2023-09-17T00:40:13.519Z,16.48
2023-09-17T00:42:46.514Z,16.47
2023-09-17T00:45:19.713Z,16.44
2023-09-17T00:47:52.913Z,16.42
2023-09-17T00:50:27.736Z,16.39
2023-09-17T00:53:01.295Z,16.36
2023-09-17T00:55:34.400Z,16.46
2023-09-17T00:58:09.036Z,16.35
2023-09-17T01:00:42.036Z,16.33
2023-09-17T01:03:15.146Z,16.33
2023-09-17T01:05:50.194Z,16.33
2023-09-17T01:08:24.299Z,16.31
2023-09-17T01:10:57.540Z,16.31
2023-09-17T01:13:30.689Z,16.30
2023-09-17T01:16:05.196Z,16.29
2023-09-17T01:18:38.505Z,16.29
2023-09-17T01:21:19.405Z,16.29
2023-09-17T01:24:06.844Z,16.29
2023-09-17T01:26:43.499Z,16.28
2023-09-17T01:29:24.014Z,16.27
2023-09-17T01:31:57.720Z,16.24
2023-09-17T01:34:32.079Z,16.23
2023-09-17T01:37:08.901Z,16.23
2023-09-17T01:39:47.678Z,16.22
2023-09-17T01:42:21.852Z,16.19
2023-09-17T01:44:57.675Z,16.17
2023-09-17T01:47:34.345Z,16.13
2023-09-17T01:50:09.345Z,16.10
2023-09-17T01:52:46.254Z,16.10
2023-09-17T01:55:19.297Z,16.07
2023-09-17T01:57:54.984Z,16.04
2023-09-17T02:00:29.631Z,16.00
2023-09-17T02:03:04.028Z,15.95
2023-09-17T02:05:37.264Z,15.93
2023-09-17T02:08:10.305Z,15.91
2023-09-17T02:10:43.349Z,15.88
2023-09-17T02:13:16.414Z,15.84
2023-09-17T02:15:51.393Z,15.83
2023-09-17T02:18:24.435Z,15.80
2023-09-17T02:20:57.946Z,15.78
2023-09-17T02:23:31.083Z,15.78
2023-09-17T02:26:04.013Z,15.78
2023-09-17T02:28:37.012Z,15.77
2023-09-17T02:31:12.015Z,15.77
2023-09-17T02:33:44.949Z,15.76
2023-09-17T02:36:18.036Z,15.76
2023-09-17T02:38:51.306Z,15.74
2023-09-17T02:41:24.564Z,15.71
2023-09-17T02:43:58.483Z,15.67
2023-09-17T02:46:33.041Z,15.62
2023-09-17T02:49:07.045Z,15.60
2023-09-17T02:51:40.038Z,15.57
2023-09-17T02:54:13.313Z,15.55
2023-09-17T02:56:46.222Z,15.54
2023-09-17T02:59:19.157Z,15.52
2023-09-17T03:01:53.868Z,15.49
2023-09-17T03:04:27.828Z,15.44
2023-09-17T03:07:01.094Z,15.42
2023-09-17T03:09:35.179Z,15.53
2023-09-17T03:12:08.661Z,15.43
2023-09-17T03:14:41.803Z,15.42
2023-09-17T03:17:17.746Z,15.40
2023-09-17T03:19:53.004Z,15.41
2023-09-17T03:22:25.989Z,15.39
2023-09-17T03:25:04.456Z,15.38
2023-09-17T03:27:40.046Z,15.37
2023-09-17T03:30:14.087Z,15.36
2023-09-17T03:33:01.666Z,15.37
2023-09-17T03:35:41.947Z,15.35
2023-09-17T03:38:15.009Z,15.31
2023-09-17T03:40:48.283Z,15.28
2023-09-17T03:43:21.916Z,15.25
2023-09-17T03:45:54.960Z,15.22
2023-09-17T03:48:29.752Z,15.31
2023-09-17T03:51:05.609Z,15.20
2023-09-17T03:53:38.810Z,15.17
2023-09-17T03:56:13.311Z,15.14
2023-09-17T03:58:46.583Z,15.13
2023-09-17T04:01:21.638Z,15.11
2023-09-17T04:03:56.238Z,15.11
2023-09-17T04:06:30.510Z,15.10
2023-09-17T04:09:03.445Z,15.06
2023-09-17T04:11:36.781Z,15.05
2023-09-17T04:14:10.828Z,15.02
2023-09-17T04:16:44.017Z,14.99
2023-09-17T04:19:18.475Z,14.99
2023-09-17T04:21:51.453Z,14.99
2023-09-17T04:24:24.772Z,14.99
2023-09-17T04:26:57.742Z,14.97
2023-09-17T04:29:31.152Z,14.97
2023-09-17T04:32:04.920Z,14.96
2023-09-17T04:34:39.465Z,14.95
2023-09-17T04:37:12.551Z,14.96
2023-09-17T04:39:46.120Z,14.97
2023-09-17T04:42:19.130Z,14.98
2023-09-17T04:44:52.242Z,14.99
2023-09-17T04:47:25.783Z,15.00
2023-09-17T04:50:00.923Z,15.03
2023-09-17T04:52:33.990Z,15.05
2023-09-17T04:55:07.919Z,15.09
2023-09-17T04:57:41.459Z,15.10
2023-09-17T05:00:15.619Z,15.12
2023-09-17T05:02:50.582Z,15.14
2023-09-17T05:05:26.752Z,15.16
2023-09-17T05:08:00.118Z,15.19
2023-09-17T05:10:34.201Z,15.23
2023-09-17T05:13:07.704Z,15.26
2023-09-17T05:15:41.223Z,15.31
2023-09-17T05:18:14.289Z,15.34
2023-09-17T05:20:56.219Z,15.36
2023-09-17T05:23:30.509Z,15.39
2023-09-17T05:26:06.977Z,15.43
2023-09-17T05:28:40.120Z,15.53
2023-09-17T05:31:13.574Z,15.62
2023-09-17T05:33:47.481Z,15.72
2023-09-17T05:36:22.405Z,15.85
2023-09-17T05:38:55.337Z,16.00
2023-09-17T05:41:28.347Z,16.17
2023-09-17T05:44:04.749Z,16.32
2023-09-17T05:46:38.212Z,16.48
2023-09-17T05:49:11.292Z,16.62
2023-09-17T05:51:45.942Z,16.77
2023-09-17T05:54:19.021Z,16.88
2023-09-17T05:56:52.184Z,17.14
2023-09-17T05:59:25.232Z,17.17
2023-09-17T06:01:59.325Z,17.27
2023-09-17T06:04:32.341Z,17.37
2023-09-17T06:07:06.851Z,17.48
2023-09-17T06:09:39.796Z,17.58
2023-09-17T06:12:13.443Z,17.71
2023-09-17T06:14:46.454Z,17.86
2023-09-17T06:17:20.121Z,18.02
2023-09-17T06:19:53.143Z,18.18
2023-09-17T06:22:27.560Z,18.36
2023-09-17T06:25:00.740Z,18.53
2023-09-17T06:27:36.171Z,18.70
2023-09-17T06:30:10.666Z,18.86
2023-09-17T06:32:43.994Z,19.01
2023-09-17T06:35:17.258Z,19.17
2023-09-17T06:37:52.230Z,19.32
2023-09-17T06:40:25.249Z,19.48
2023-09-17T06:42:58.227Z,19.65
2023-09-17T06:45:32.066Z,19.78
2023-09-17T06:48:05.299Z,19.93
2023-09-17T06:50:38.446Z,20.03
2023-09-17T06:53:12.799Z,20.17
2023-09-17T06:55:46.133Z,20.34
2023-09-17T06:58:19.233Z,20.53
2023-09-17T07:00:52.256Z,20.67
2023-09-17T07:03:25.297Z,20.81
2023-09-17T07:05:58.391Z,20.95
2023-09-17T07:08:32.914Z,21.10
2023-09-17T07:11:06.160Z,21.27
2023-09-17T07:13:39.870Z,21.41
2023-09-17T07:16:14.683Z,21.60
2023-09-17T07:18:47.907Z,21.81
2023-09-17T07:21:21.230Z,22.03
2023-09-17T07:23:55.858Z,22.34
2023-09-17T07:26:29.740Z,22.47
2023-09-17T07:29:04.849Z,22.68
2023-09-17T07:31:37.983Z,22.93
2023-09-17T07:34:11.312Z,23.23
2023-09-17T07:36:44.281Z,23.56
2023-09-17T07:39:18.786Z,23.90
2023-09-17T07:41:51.773Z,24.24
2023-09-17T07:44:26.121Z,24.60
2023-09-17T07:46:59.147Z,24.95
2023-09-17T07:49:32.109Z,25.44
2023-09-17T07:52:05.621Z,25.83
2023-09-17T07:54:41.692Z,26.03
2023-09-17T07:57:14.958Z,25.93
2023-09-17T07:59:49.762Z,25.81
2023-09-17T08:02:22.865Z,25.92
2023-09-17T08:04:55.960Z,26.43
2023-09-17T08:07:31.257Z,27.10
2023-09-17T08:10:07.851Z,27.78
2023-09-17T08:12:40.827Z,28.47
2023-09-17T08:15:18.432Z,29.01
2023-09-17T08:17:53.101Z,29.76
2023-09-17T08:20:27.435Z,30.34
2023-09-17T08:23:01.758Z,30.91
2023-09-17T08:25:38.163Z,31.51
2023-09-17T08:28:14.650Z,32.04
2023-09-17T08:30:48.841Z,32.41
2023-09-17T08:33:22.001Z,32.67
2023-09-17T08:35:56.508Z,33.00
2023-09-17T08:38:31.756Z,33.35
2023-09-17T08:41:09.697Z,33.59
2023-09-17T08:43:44.842Z,33.80
2023-09-17T08:46:18.341Z,34.15
2023-09-17T08:48:52.346Z,34.54
2023-09-17T08:51:28.652Z,35.01
2023-09-17T08:54:08.479Z,35.37
2023-09-17T08:56:45.509Z,35.60
2023-09-17T08:59:26.168Z,35.82
2023-09-17T09:02:05.041Z,36.00
2023-09-17T09:04:39.158Z,36.22
2023-09-17T09:07:13.071Z,36.41
2023-09-17T09:09:47.470Z,36.61
2023-09-17T09:12:22.930Z,36.89
2023-09-17T09:14:57.269Z,37.06
2023-09-17T09:17:30.779Z,37.30
2023-09-17T09:20:05.133Z,37.33
2023-09-17T09:22:38.608Z,37.46
2023-09-17T09:25:14.672Z,37.63
2023-09-17T09:27:49.328Z,37.78
2023-09-17T09:30:22.325Z,38.65
2023-09-17T09:32:58.707Z,40.11
2023-09-17T09:35:32.626Z,41.42
2023-09-17T09:38:08.698Z,42.62
2023-09-17T09:40:43.619Z,43.88
2023-09-17T09:43:34.218Z,45.30
2023-09-17T09:46:07.730Z,46.45
2023-09-17T09:48:42.594Z,47.31
2023-09-17T09:51:19.637Z,48.22
2023-09-17T09:53:57.171Z,49.02
2023-09-17T09:56:30.546Z,49.67
2023-09-17T09:59:07.063Z,50.29
2023-09-17T10:01:40.680Z,50.89
2023-09-17T10:04:14.047Z,51.38
2023-09-17T10:06:50.270Z,51.72
2023-09-17T10:09:25.662Z,51.98
2023-09-17T10:11:59.805Z,52.40
2023-09-17T10:14:39.803Z,52.59
2023-09-17T10:17:15.921Z,52.82
2023-09-17T10:19:50.076Z,52.94
2023-09-17T10:22:25.181Z,53.08
2023-09-17T10:24:58.491Z,53.11
2023-09-17T10:27:41.194Z,53.19
2023-09-17T10:30:19.355Z,53.23
2023-09-17T10:32:53.318Z,53.41
2023-09-17T10:35:26.817Z,53.59
2023-09-17T10:38:06.976Z,53.59
2023-09-17T10:40:41.130Z,53.39
2023-09-17T10:43:17.612Z,53.44
2023-09-17T10:46:01.310Z,53.58
2023-09-17T10:48:42.176Z,53.67
2023-09-17T10:51:17.868Z,53.64
2023-09-17T10:53:55.109Z,53.68
2023-09-17T10:56:28.356Z,53.74
2023-09-17T10:59:02.258Z,54.05
2023-09-17T11:01:42.568Z,54.36
2023-09-17T11:04:18.012Z,54.45
2023-09-17T11:06:53.349Z,54.53
2023-09-17T11:09:26.693Z,54.57
2023-09-17T11:11:59.728Z,54.38
2023-09-17T11:14:32.810Z,53.70
2023-09-17T11:17:10.344Z,53.41
2023-09-17T11:19:46.681Z,53.16
2023-09-17T11:22:20.847Z,52.22
2023-09-17T11:24:54.187Z,50.60
2023-09-17T11:27:46.170Z,48.85
2023-09-17T11:30:19.948Z,47.50
2023-09-17T11:32:55.780Z,46.35
2023-09-17T11:35:29.000Z,45.46
2023-09-17T11:38:02.052Z,44.87
2023-09-17T11:40:35.118Z,44.40
2023-09-17T11:43:08.209Z,44.14
2023-09-17T11:45:41.237Z,43.91
2023-09-17T11:48:15.866Z,43.67
2023-09-17T11:50:49.075Z,43.40
2023-09-17T11:53:22.248Z,43.02
2023-09-17T11:55:55.313Z,42.62
2023-09-17T11:58:33.408Z,42.32
2023-09-17T12:01:11.338Z,40.33
2023-09-17T12:03:47.232Z,39.76
2023-09-17T12:06:21.859Z,38.78
2023-09-17T12:08:57.700Z,38.74
2023-09-17T12:11:31.753Z,38.72
2023-09-17T12:14:07.922Z,38.73
2023-09-17T12:16:41.625Z,38.78
2023-09-17T12:19:18.690Z,38.73
2023-09-17T12:22:01.632Z,38.68
2023-09-17T12:24:38.989Z,38.48
2023-09-17T12:27:25.755Z,38.05
2023-09-17T12:29:58.886Z,37.35
2023-09-17T12:32:34.421Z,36.54
2023-09-17T12:35:10.332Z,35.71
2023-09-17T12:37:43.337Z,34.96
2023-09-17T12:40:16.754Z,34.32
2023-09-17T12:42:49.682Z,33.53
2023-09-17T12:45:24.602Z,32.94
2023-09-17T12:47:57.809Z,32.40
2023-09-17T12:50:32.453Z,32.01
2023-09-17T12:53:06.106Z,31.69
2023-09-17T12:55:39.245Z,31.46
2023-09-17T12:58:13.181Z,31.29
2023-09-17T13:00:46.224Z,31.11
2023-09-17T13:03:19.559Z,30.93
2023-09-17T13:05:59.306Z,30.76
2023-09-17T13:08:32.459Z,30.60
2023-09-17T13:11:05.576Z,30.43
2023-09-17T13:13:38.698Z,30.30
2023-09-17T13:16:11.793Z,30.22
2023-09-17T13:18:48.033Z,30.17
2023-09-17T13:21:22.888Z,30.13
2023-09-17T13:23:56.021Z,30.11
2023-09-17T13:26:29.078Z,30.12
2023-09-17T13:29:04.772Z,30.11
2023-09-17T13:31:38.407Z,30.11
2023-09-17T13:34:11.645Z,30.04
2023-09-17T13:36:46.038Z,29.97
2023-09-17T13:39:18.995Z,29.95
2023-09-17T13:41:54.296Z,29.81
2023-09-17T13:44:27.235Z,29.65
2023-09-17T13:47:00.591Z,29.49
2023-09-17T13:49:33.569Z,29.37
2023-09-17T13:52:08.323Z,29.26
2023-09-17T13:54:43.430Z,29.13
2023-09-17T13:57:17.030Z,28.99
2023-09-17T13:59:49.965Z,28.86
2023-09-17T14:02:23.178Z,28.81
2023-09-17T14:04:56.157Z,28.74
2023-09-17T14:07:30.519Z,28.59
2023-09-17T14:10:03.447Z,28.54
2023-09-17T14:12:36.148Z,28.58
2023-09-17T14:15:12.089Z,28.48
2023-09-17T14:17:45.224Z,28.44
2023-09-17T14:20:18.377Z,28.37
2023-09-17T14:22:53.812Z,28.30
2023-09-17T14:25:28.684Z,28.20
2023-09-17T14:28:01.844Z,28.14
2023-09-17T14:30:35.335Z,28.13
2023-09-17T14:33:12.449Z,28.08
2023-09-17T14:35:48.032Z,28.06
2023-09-17T14:38:22.106Z,28.14
2023-09-17T14:40:55.084Z,28.10
2023-09-17T14:43:27.855Z,28.18
2023-09-17T14:46:00.739Z,28.12
2023-09-17T14:48:33.440Z,28.20
2023-09-17T14:51:06.352Z,28.07
2023-09-17T14:53:41.500Z,28.09
2023-09-17T14:56:14.481Z,27.96
2023-09-17T14:58:47.534Z,27.87
2023-09-17T15:01:40.468Z,27.79
2023-09-17T15:04:13.891Z,27.74
2023-09-17T15:06:47.042Z,27.70
2023-09-17T15:09:21.656Z,27.64
2023-09-17T15:11:54.954Z,27.62
2023-09-17T15:14:27.930Z,27.57
2023-09-17T15:17:01.294Z,27.57
2023-09-17T15:19:34.066Z,27.61
2023-09-17T15:22:10.992Z,27.57
2023-09-17T15:24:45.932Z,27.55
2023-09-17T15:27:18.854Z,27.57
2023-09-17T15:29:52.023Z,27.69
2023-09-17T15:32:25.028Z,27.61
2023-09-17T15:34:57.845Z,27.73
2023-09-17T15:37:30.802Z,27.63
2023-09-17T15:40:07.028Z,27.74
2023-09-17T15:42:40.082Z,27.63
2023-09-17T15:45:13.083Z,27.59
2023-09-17T15:47:45.793Z,27.68
2023-09-17T15:50:18.890Z,27.56
2023-09-17T15:52:51.982Z,27.47
2023-09-17T15:55:26.169Z,27.55
2023-09-17T15:57:59.584Z,27.36
2023-09-17T16:00:32.898Z,27.26
2023-09-17T16:03:06.060Z,27.18
2023-09-17T16:05:39.193Z,27.09
2023-09-17T16:08:12.197Z,27.13
2023-09-17T16:10:46.624Z,26.94
2023-09-17T16:13:19.746Z,26.85
2023-09-17T16:15:52.884Z,26.78
2023-09-17T16:18:25.778Z,26.71
2023-09-17T16:20:58.863Z,26.64
2023-09-17T16:23:31.738Z,26.71
2023-09-17T16:26:06.384Z,26.55
2023-09-17T16:28:39.717Z,26.46
2023-09-17T16:31:12.850Z,26.40
2023-09-17T16:33:45.707Z,26.45
2023-09-17T16:36:18.743Z,26.29
2023-09-17T16:38:51.580Z,26.38
2023-09-17T16:41:26.187Z,26.21
2023-09-17T16:43:59.082Z,26.15
2023-09-17T16:46:32.083Z,26.10
2023-09-17T16:49:04.822Z,26.18
2023-09-17T16:51:43.736Z,26.03
2023-09-17T16:54:17.041Z,25.97
2023-09-17T16:56:51.462Z,25.92
2023-09-17T16:59:27.005Z,25.89
2023-09-17T17:02:01.249Z,25.84
2023-09-17T17:04:34.370Z,25.80
2023-09-17T17:07:07.312Z,25.74
2023-09-17T17:09:40.390Z,25.67
2023-09-17T17:12:17.434Z,25.71
2023-09-17T17:14:50.956Z,25.52
2023-09-17T17:17:24.019Z,25.42
2023-09-17T17:19:58.620Z,25.43
2023-09-17T17:22:43.301Z,25.27
2023-09-17T17:25:16.831Z,25.16
2023-09-17T17:27:52.496Z,25.09
2023-09-17T17:30:27.564Z,25.01
2023-09-17T17:33:00.630Z,24.94
2023-09-17T17:35:33.625Z,24.88
2023-09-17T17:38:06.734Z,24.83
2023-09-17T17:40:39.551Z,24.88
2023-09-17T17:43:14.025Z,24.71
2023-09-17T17:45:47.166Z,24.64
2023-09-17T17:48:19.990Z,24.71
2023-09-17T17:50:53.612Z,24.55
2023-09-17T17:53:27.945Z,24.50
2023-09-17T17:56:01.050Z,24.44
2023-09-17T17:58:36.810Z,24.40
2023-09-17T18:01:09.798Z,24.35
2023-09-17T18:03:42.991Z,24.28
2023-09-17T18:06:17.366Z,24.34
2023-09-17T18:08:50.500Z,24.18
2023-09-17T18:11:23.616Z,24.13
2023-09-17T18:13:57.882Z,24.19
2023-09-17T18:16:30.918Z,24.00
2023-09-17T18:19:04.064Z,23.92
2023-09-17T18:21:36.857Z,23.96
2023-09-17T18:24:09.822Z,23.81
2023-09-17T18:26:42.978Z,23.73
2023-09-17T18:29:17.350Z,23.67
2023-09-17T18:31:53.193Z,23.64
2023-09-17T18:34:30.606Z,23.58
2023-09-17T18:37:03.784Z,23.54
2023-09-17T18:39:36.653Z,23.64
2023-09-17T18:42:09.879Z,23.52
2023-09-17T18:44:44.341Z,23.45
2023-09-17T18:47:17.543Z,23.41
2023-09-17T18:49:53.244Z,23.37
2023-09-17T18:52:28.329Z,23.33
2023-09-17T18:55:02.537Z,23.30
2023-09-17T18:57:40.852Z,23.27
2023-09-17T19:00:17.357Z,23.21
2023-09-17T19:02:50.371Z,23.17
2023-09-17T19:05:23.586Z,23.13
2023-09-17T19:07:56.465Z,23.21
2023-09-17T19:10:29.544Z,23.08
2023-09-17T19:13:04.930Z,23.02
2023-09-17T19:15:45.212Z,22.97
2023-09-17T19:18:21.070Z,22.90
2023-09-17T19:21:08.147Z,22.88
2023-09-17T19:23:46.645Z,22.80
2023-09-17T19:26:21.110Z,22.75
2023-09-17T19:28:54.121Z,22.73
2023-09-17T19:31:30.103Z,22.71
2023-09-17T19:34:05.094Z,22.67
2023-09-17T19:36:38.624Z,22.66
2023-09-17T19:39:12.790Z,22.64
2023-09-17T19:41:45.987Z,22.62
2023-09-17T19:44:19.088Z,22.59
2023-09-17T19:46:56.397Z,22.67
2023-09-17T19:49:33.150Z,22.56
2023-09-17T19:52:06.583Z,22.53
2023-09-17T19:54:44.861Z,22.49
2023-09-17T19:57:17.810Z,22.47
2023-09-17T19:59:50.716Z,22.45
2023-09-17T20:02:25.304Z,22.42
2023-09-17T20:04:58.414Z,22.39
2023-09-17T20:07:33.557Z,22.37
2023-09-17T20:10:15.647Z,22.32
2023-09-17T20:12:48.997Z,22.27
2023-09-17T20:15:24.349Z,22.24
2023-09-17T20:17:59.417Z,22.19
2023-09-17T20:20:33.268Z,22.13
2023-09-17T20:23:06.430Z,22.08
2023-09-17T20:25:39.358Z,22.04
2023-09-17T20:28:14.694Z,22.02
2023-09-17T20:30:52.063Z,21.98
2023-09-17T20:33:26.505Z,21.96
2023-09-17T20:35:59.514Z,21.93
2023-09-17T20:38:32.472Z,21.90
2023-09-17T20:41:06.267Z,21.88
2023-09-17T20:43:39.280Z,21.86
2023-09-17T20:46:12.272Z,21.83
2023-09-17T20:48:46.719Z,21.82
2023-09-17T20:51:19.612Z,21.80
2023-09-17T20:53:52.893Z,21.76
2023-09-17T20:56:26.824Z,21.75
2023-09-17T20:59:00.147Z,21.72
2023-09-17T21:01:33.412Z,21.68
2023-09-17T21:04:08.827Z,21.66
2023-09-17T21:06:42.182Z,21.64
2023-09-17T21:09:25.931Z,21.64
2023-09-17T21:11:58.883Z,21.59
2023-09-17T21:14:31.887Z,21.57
2023-09-17T21:17:05.248Z,21.54
2023-09-17T21:19:39.702Z,21.62
2023-09-17T21:22:12.698Z,21.51
2023-09-17T21:24:46.115Z,21.46
2023-09-17T21:27:19.041Z,21.45
2023-09-17T21:29:51.970Z,21.42
2023-09-17T21:32:25.077Z,21.40
2023-09-17T21:34:59.442Z,21.37
2023-09-17T21:37:32.502Z,21.34
2023-09-17T21:40:06.168Z,21.33
2023-09-17T21:42:39.226Z,21.30
2023-09-17T21:45:13.329Z,21.28
2023-09-17T21:47:46.477Z,21.26
2023-09-17T21:50:20.882Z,21.24
2023-09-17T21:52:53.866Z,21.22
2023-09-17T21:55:27.055Z,21.20
2023-09-17T21:58:00.048Z,21.16
2023-09-17T22:00:32.969Z,21.12
2023-09-17T22:03:06.085Z,21.07
2023-09-17T22:05:43.602Z,21.02
2023-09-17T22:08:18.400Z,20.98
2023-09-17T22:10:51.542Z,20.94
2023-09-17T22:13:24.854Z,20.89
2023-09-17T22:15:57.808Z,20.86
2023-09-17T22:18:31.047Z,20.81
2023-09-17T22:21:10.700Z,20.78
2023-09-17T22:23:43.735Z,20.73
2023-09-17T22:26:16.827Z,20.71
2023-09-17T22:28:50.970Z,20.67
2023-09-17T22:31:24.234Z,20.65
2023-09-17T22:33:57.364Z,20.61
2023-09-17T22:36:32.034Z,20.57
2023-09-17T22:39:05.994Z,20.53
2023-09-17T22:41:38.920Z,20.49
2023-09-17T22:44:23.840Z,20.46
2023-09-17T22:46:57.887Z,20.42
2023-09-17T22:49:31.402Z,20.40
2023-09-17T22:52:06.458Z,20.38
2023-09-17T22:54:39.373Z,20.38
2023-09-17T22:57:12.292Z,20.37
2023-09-17T22:59:45.394Z,20.36
2023-09-17T23:02:18.588Z,20.34
2023-09-17T23:04:51.586Z,20.33
2023-09-17T23:07:25.936Z,20.32
2023-09-17T23:09:58.918Z,20.32
2023-09-17T23:12:31.807Z,20.35
2023-09-17T23:15:05.224Z,20.36
2023-09-17T23:17:40.684Z,20.47
2023-09-17T23:20:14.185Z,20.35
2023-09-17T23:22:48.292Z,20.46
2023-09-17T23:25:22.925Z,20.46
2023-09-17T23:27:55.858Z,20.31
2023-09-17T23:30:28.952Z,20.28
2023-09-17T23:33:01.988Z,20.25
2023-09-17T23:35:35.055Z,20.21
2023-09-17T23:38:10.352Z,20.19
2023-09-17T23:40:43.520Z,20.16
2023-09-17T23:43:16.583Z,20.14
2023-09-17T23:45:49.582Z,20.10
2023-09-17T23:48:22.850Z,20.07
2023-09-17T23:50:56.129Z,20.04
2023-09-17T23:53:30.735Z,20.05
2023-09-17T23:56:04.015Z,20.01
2023-09-17T23:58:37.009Z,20.01
